AGGH/HIR METAR and TAF weather

Enter ICAO airport designator
Station Type Date Time Source
AGGH METAR 2020/02/21 00:00 UTC NOAA

AGGH 210000Z 05004KT 9999 FEW018 FEW019CB BKN300 30/26 Q1009 RMKS CB ASSW SH TO S/SSE


Station Type Date Time Source
AGGH Decoded METAR 2020/02/21 00:00 UTC NOAA

Honiara / Henderson, Solomon Islands (AGGH) 09-25S 160-03E 9M
Feb 20, 2020 - 07:00 PM EST / 2020.02.21 0000 UTC
Wind: from the NE (050 degrees) at 5 MPH (4 KT):0
Visibility: greater than 7 mile(s):0
Sky conditions: mostly cloudy
Weather: Cumulonimbus clouds observed
Temperature: 86 F (30 C)
Heat index: 99.3 F (37.4 C):1
Dew Point: 78 F (26 C)
Relative Humidity: 79%
Pressure (altimeter): 29.80 in. Hg (1009 hPa)
ob: AGGH 210000Z 05004KT 9999 FEW018 FEW019CB BKN300 30/26 Q1009 RMKS CB ASSW SH TO S/SSE
cycle: 0

Station Type Date Time Source
AGGH TAF 2020/02/20 18:30 UTC NOAA

TAF TAF AGGH 201720Z 2018/2118 29015KT 9999 FEW018 BKN100 PROB40 INTER 2018/2101 5000 TSSH SCT015 FEW016CB BKN026 T 26 28 30 31 Q 1006 1008 1008 1006

Example: see airport list